Time;durP1;ratioP1;P1;durP2;ratioP2;P2;SDS_P1;SDS_P2;PMS_P1;PMS_P2;Temp;Humidity;BMP_temperature;BMP_pressure;BME280_temperature;BME280_humidity;BME280_pressure;Samples;Min_cycle;Max_cycle;Signal;HPM_P1;HPM_P2
2022/11/09 00:00:16;;;;;;;14.30;5.60;;;11.90;99.90;;;;;;5090438;28;20555;-70
2022/11/09 00:02:43;;;;;;;9.93;4.90;;;11.90;99.90;;;;;;5090672;28;20470;-70
2022/11/09 00:05:11;;;;;;;10.17;5.10;;;12.00;99.90;;;;;;5090395;28;20511;-70
2022/11/09 00:07:38;;;;;;;7.23;5.30;;;12.20;99.90;;;;;;5090893;28;20457;-70
2022/11/09 00:10:06;;;;;;;7.53;5.47;;;12.30;99.90;;;;;;5090611;28;20862;-70
2022/11/09 00:12:32;;;;;;;9.83;4.87;;;12.30;99.90;;;;;;5090680;28;20474;-70
2022/11/09 00:14:59;;;;;;;6.60;5.07;;;12.40;99.90;;;;;;5090590;28;20444;-70
2022/11/09 00:17:25;;;;;;;4.70;4.20;;;12.40;99.90;;;;;;5090799;28;20456;-70
2022/11/09 00:19:52;;;;;;;6.80;4.73;;;12.40;99.90;;;;;;5090418;28;20439;-70
2022/11/09 00:22:21;;;;;;;8.73;5.13;;;12.50;99.90;;;;;;5090182;28;20468;-70
2022/11/09 00:24:47;;;;;;;8.73;4.27;;;12.50;99.90;;;;;;5090144;28;20958;-69
2022/11/09 00:27:14;;;;;;;5.27;4.43;;;12.50;99.90;;;;;;5091571;28;20481;-70
2022/11/09 00:29:41;;;;;;;8.13;4.50;;;12.50;99.90;;;;;;5090458;28;20487;-70
2022/11/09 00:32:07;;;;;;;8.27;4.73;;;12.50;99.90;;;;;;5090785;28;20467;-70
2022/11/09 00:34:34;;;;;;;5.50;4.57;;;12.50;99.90;;;;;;5089923;28;20447;-70
2022/11/09 00:37:01;;;;;;;7.70;5.50;;;12.40;99.90;;;;;;5092055;28;20447;-70
2022/11/09 00:39:29;;;;;;;8.30;5.07;;;12.40;99.90;;;;;;5090295;28;20447;-70
2022/11/09 00:41:56;;;;;;;8.27;5.17;;;12.40;99.90;;;;;;5090762;28;20469;-70
2022/11/09 00:44:22;;;;;;;15.07;6.03;;;12.40;99.90;;;;;;5090976;28;20444;-70
2022/11/09 00:46:49;;;;;;;10.23;5.47;;;12.40;99.90;;;;;;5091221;28;20502;-70
2022/11/09 00:49:16;;;;;;;8.10;5.50;;;12.30;99.90;;;;;;5090452;28;20478;-71
2022/11/09 00:51:43;;;;;;;7.03;5.40;;;12.30;99.90;;;;;;5090555;28;20506;-70
2022/11/09 00:54:09;;;;;;;10.63;5.50;;;12.30;99.90;;;;;;5090282;28;20463;-70
2022/11/09 00:56:37;;;;;;;6.23;5.63;;;12.30;99.90;;;;;;5090643;28;20443;-70
2022/11/09 00:59:04;;;;;;;7.87;5.30;;;12.30;99.90;;;;;;5090838;28;21047;-71
2022/11/09 01:01:31;;;;;;;6.77;5.23;;;12.30;99.90;;;;;;5090231;28;20450;-70
2022/11/09 01:03:57;;;;;;;7.10;5.87;;;12.30;99.90;;;;;;5091499;28;20472;-71
2022/11/09 01:06:25;;;;;;;6.97;5.23;;;12.30;99.90;;;;;;5090288;28;20500;-70
2022/11/09 01:08:53;;;;;;;8.10;5.87;;;12.30;99.90;;;;;;5090880;28;20454;-71
2022/11/09 01:11:21;;;;;;;8.27;5.77;;;12.30;99.90;;;;;;5090116;28;20455;-71
2022/11/09 01:13:49;;;;;;;10.33;4.63;;;12.20;99.90;;;;;;5092372;28;20470;-71
2022/11/09 01:16:18;;;;;;;6.23;4.43;;;12.20;99.90;;;;;;5091195;28;20457;-72
2022/11/09 01:18:44;;;;;;;10.17;4.53;;;12.20;99.90;;;;;;5090288;28;20446;-72
2022/11/09 01:21:14;;;;;;;11.80;4.53;;;12.30;99.90;;;;;;5090012;28;20447;-72
2022/11/09 01:23:42;;;;;;;6.60;4.37;;;12.30;99.90;;;;;;5090780;28;20471;-72
2022/11/09 01:26:12;;;;;;;4.57;4.13;;;12.30;99.90;;;;;;5090327;28;20446;-70
2022/11/09 01:28:39;;;;;;;12.37;3.93;;;12.30;99.90;;;;;;5089774;28;20562;-71
2022/11/09 01:31:11;;;;;;;7.27;4.50;;;12.30;99.90;;;;;;5090369;28;20501;-71
2022/11/09 01:33:38;;;;;;;8.83;4.57;;;12.30;99.90;;;;;;5088941;28;20470;-71
2022/11/09 01:36:06;;;;;;;7.50;4.80;;;12.30;99.90;;;;;;5092604;28;20443;-71
2022/11/09 01:38:33;;;;;;;9.20;4.80;;;12.30;99.90;;;;;;5094061;28;20450;-71
2022/11/09 01:40:59;;;;;;;9.83;4.70;;;12.20;99.90;;;;;;5094454;28;20443;-71
2022/11/09 01:43:26;;;;;;;8.43;4.80;;;12.20;99.90;;;;;;5093464;28;20475;-72
2022/11/09 01:45:57;;;;;;;7.93;4.90;;;12.20;99.90;;;;;;5094154;28;20943;-71
2022/11/09 01:48:33;;;;;;;7.73;4.70;;;12.20;99.90;;;;;;5093762;28;20451;-71
2022/11/09 01:51:07;;;;;;;5.73;4.30;;;12.20;99.90;;;;;;5094760;28;20481;-71
2022/11/09 01:53:39;;;;;;;8.27;5.37;;;12.10;99.90;;;;;;5095722;28;20471;-71
2022/11/09 01:56:10;;;;;;;8.80;6.07;;;12.10;99.90;;;;;;5097757;28;20549;-71
2022/11/09 01:58:41;;;;;;;12.00;7.10;;;12.10;99.90;;;;;;5093721;28;20456;-71
2022/11/09 02:01:10;;;;;;;9.67;6.90;;;11.90;99.90;;;;;;5093927;28;20443;-71
2022/11/09 02:03:42;;;;;;;9.37;7.60;;;11.80;99.90;;;;;;5093709;28;20549;-71
2022/11/09 02:06:11;;;;;;;11.73;8.30;;;11.70;99.90;;;;;;5093889;28;20454;-71
2022/11/09 02:08:39;;;;;;;13.90;9.20;;;11.60;99.90;;;;;;5092343;28;20461;-71
2022/11/09 02:11:09;;;;;;;13.70;8.43;;;11.60;99.90;;;;;;5093171;28;20477;-71
2022/11/09 02:13:38;;;;;;;13.43;8.40;;;11.50;99.90;;;;;;5093423;28;20471;-71
2022/11/09 02:16:06;;;;;;;11.40;8.67;;;11.50;99.90;;;;;;5093270;28;20450;-71
2022/11/09 02:18:34;;;;;;;9.60;7.20;;;11.50;99.90;;;;;;5093426;28;20455;-71
2022/11/09 02:21:02;;;;;;;16.40;8.63;;;11.40;99.90;;;;;;5093003;28;20443;-71
2022/11/09 02:23:29;;;;;;;12.57;9.03;;;11.50;99.90;;;;;;5092889;28;20537;-72
2022/11/09 02:26:00;;;;;;;12.97;9.03;;;11.40;99.90;;;;;;5093056;28;20460;-72
2022/11/09 02:28:28;;;;;;;10.63;8.90;;;11.40;99.90;;;;;;5093239;28;20899;-72
2022/11/09 02:30:56;;;;;;;17.87;9.53;;;11.40;99.90;;;;;;5092621;28;21068;-73
2022/11/09 02:33:23;;;;;;;13.33;9.80;;;11.40;99.90;;;;;;5092841;28;20471;-71
2022/11/09 02:35:50;;;;;;;13.30;10.00;;;11.40;99.90;;;;;;5086583;28;20493;-71
2022/11/09 02:38:18;;;;;;;12.50;10.17;;;11.40;99.90;;;;;;5092419;28;20456;-71
2022/11/09 02:40:49;;;;;;;19.77;11.30;;;11.40;99.90;;;;;;5092737;28;20451;-71
2022/11/09 02:43:17;;;;;;;12.60;10.13;;;11.40;99.90;;;;;;5093018;28;20541;-71
2022/11/09 02:45:44;;;;;;;17.33;11.00;;;11.40;99.90;;;;;;5093039;28;20827;-71
2022/11/09 02:48:11;;;;;;;19.80;11.67;;;11.50;99.90;;;;;;5091833;28;21016;-71
2022/11/09 02:50:38;;;;;;;17.57;10.43;;;11.50;99.90;;;;;;5091901;28;20482;-71
2022/11/09 02:53:05;;;;;;;15.60;11.67;;;11.50;99.90;;;;;;5092944;28;20468;-72
2022/11/09 02:55:33;;;;;;;16.10;12.30;;;11.60;99.90;;;;;;5092638;28;20452;-71
2022/11/09 02:58:00;;;;;;;17.80;13.50;;;11.60;99.90;;;;;;5093997;28;20458;-71
2022/11/09 03:00:27;;;;;;;19.13;14.00;;;11.60;99.90;;;;;;5092672;28;20449;-71
2022/11/09 03:02:53;;;;;;;19.53;15.50;;;11.60;99.90;;;;;;5107241;28;20470;-71
2022/11/09 03:05:20;;;;;;;23.87;16.30;;;11.60;99.90;;;;;;5094846;28;20444;-71
2022/11/09 03:07:47;;;;;;;20.50;15.80;;;11.60;99.90;;;;;;5092790;28;20485;-71
2022/11/09 03:10:13;;;;;;;21.43;14.43;;;11.60;99.90;;;;;;5092314;28;20546;-72
2022/11/09 03:12:41;;;;;;;25.27;15.70;;;11.50;99.90;;;;;;5092325;28;20463;-72
2022/11/09 03:15:09;;;;;;;21.50;15.90;;;11.50;99.90;;;;;;5092448;28;20445;-71
2022/11/09 03:17:36;;;;;;;23.50;16.50;;;11.50;99.90;;;;;;5092184;28;20473;-71
2022/11/09 03:20:03;;;;;;;19.10;14.33;;;11.60;99.90;;;;;;5092403;28;20445;-71
2022/11/09 03:22:30;;;;;;;23.60;16.57;;;11.50;99.90;;;;;;5091921;28;20493;-71
2022/11/09 03:24:57;;;;;;;23.80;16.90;;;11.60;99.90;;;;;;5092247;28;20456;-71
2022/11/09 03:27:24;;;;;;;29.47;16.60;;;11.60;99.90;;;;;;5093156;28;20449;-71
2022/11/09 03:29:52;;;;;;;21.77;15.63;;;11.60;99.90;;;;;;5091764;28;20498;-71
2022/11/09 03:32:18;;;;;;;21.50;16.57;;;11.50;99.90;;;;;;5091315;28;20849;-71
2022/11/09 03:34:45;;;;;;;24.67;16.20;;;11.60;99.90;;;;;;5092046;28;20449;-71
2022/11/09 03:37:12;;;;;;;26.17;17.37;;;11.60;99.90;;;;;;5091769;28;20459;-71
2022/11/09 03:39:38;;;;;;;25.73;16.80;;;11.60;99.90;;;;;;5091722;28;20922;-71
2022/11/09 03:42:05;;;;;;;27.83;18.00;;;11.60;99.90;;;;;;5093572;28;20944;-71
2022/11/09 03:44:32;;;;;;;25.03;17.13;;;11.60;99.90;;;;;;5091212;28;20958;-71
2022/11/09 03:47:00;;;;;;;22.57;15.80;;;11.60;99.90;;;;;;5092188;28;20489;-71
2022/11/09 03:49:26;;;;;;;27.33;17.90;;;11.60;99.90;;;;;;5091513;28;20460;-71
2022/11/09 03:51:53;;;;;;;23.23;17.30;;;11.60;99.90;;;;;;5091720;28;20479;-72
2022/11/09 03:54:20;;;;;;;27.23;19.07;;;11.60;99.90;;;;;;5090938;28;20903;-72
2022/11/09 03:56:46;;;;;;;27.70;19.00;;;11.60;99.90;;;;;;5095095;28;20891;-71
2022/11/09 03:59:13;;;;;;;30.47;19.00;;;11.60;99.90;;;;;;5096957;28;20457;-72
2022/11/09 04:01:39;;;;;;;28.47;19.63;;;11.60;99.90;;;;;;5091428;28;20450;-72
2022/11/09 04:04:08;;;;;;;35.50;21.93;;;11.60;99.90;;;;;;5091464;28;20471;-72
2022/11/09 04:06:34;;;;;;;30.40;19.73;;;11.60;99.90;;;;;;5090679;28;20451;-72
2022/11/09 04:09:01;;;;;;;31.83;20.60;;;11.50;99.90;;;;;;5091425;28;20819;-73
2022/11/09 04:11:28;;;;;;;28.07;19.13;;;11.50;99.90;;;;;;5090860;28;20486;-72
2022/11/09 04:13:54;;;;;;;30.77;19.00;;;11.50;99.90;;;;;;5091444;28;20468;-72
2022/11/09 04:16:21;;;;;;;31.43;18.80;;;11.50;99.90;;;;;;5091173;28;20461;-72
2022/11/09 04:18:48;;;;;;;25.97;17.73;;;11.50;99.90;;;;;;5090895;28;20454;-72
2022/11/09 04:21:16;;;;;;;27.13;16.27;;;11.50;99.90;;;;;;5091130;28;20959;-72
2022/11/09 04:23:43;;;;;;;28.17;17.00;;;11.50;99.90;;;;;;5090317;28;20467;-72
2022/11/09 04:26:09;;;;;;;27.17;17.47;;;11.50;99.90;;;;;;5091247;28;20967;-73
2022/11/09 04:28:36;;;;;;;23.33;16.77;;;11.60;99.90;;;;;;5098450;28;20951;-72
2022/11/09 04:31:03;;;;;;;25.80;16.73;;;11.60;99.90;;;;;;5091015;28;20853;-72
2022/11/09 04:33:30;;;;;;;22.17;15.73;;;11.60;99.90;;;;;;5090960;28;20479;-72
2022/11/09 04:36:02;;;;;;;21.70;16.00;;;11.60;99.90;;;;;;5084679;28;20445;-72
2022/11/09 04:38:30;;;;;;;22.77;14.13;;;11.60;99.90;;;;;;5098035;28;20532;-72
2022/11/09 04:41:00;;;;;;;15.07;12.17;;;11.60;99.90;;;;;;5084288;28;20967;-71
2022/11/09 04:43:27;;;;;;;17.17;10.80;;;11.70;99.90;;;;;;5090573;28;20470;-72
2022/11/09 04:45:53;;;;;;;11.67;9.07;;;11.70;99.90;;;;;;5091073;28;20446;-72
2022/11/09 04:48:20;;;;;;;13.57;7.30;;;11.70;99.90;;;;;;5098333;28;20469;-72
2022/11/09 04:50:47;;;;;;;7.80;7.00;;;11.70;99.90;;;;;;5089894;28;20508;-72
2022/11/09 04:53:15;;;;;;;7.23;6.53;;;11.80;99.90;;;;;;5090903;28;20476;-72
2022/11/09 04:55:43;;;;;;;7.53;6.70;;;11.80;99.90;;;;;;5090603;28;20480;-71
2022/11/09 04:58:10;;;;;;;7.50;6.60;;;11.80;99.90;;;;;;5098381;28;20454;-72
2022/11/09 05:00:37;;;;;;;6.53;5.93;;;11.80;99.90;;;;;;5090465;28;20440;-72
2022/11/09 05:03:05;;;;;;;12.70;7.73;;;11.90;99.90;;;;;;5092257;28;20814;-72
2022/11/09 05:05:33;;;;;;;19.57;13.33;;;11.90;99.90;;;;;;5090240;28;20448;-72
2022/11/09 05:07:59;;;;;;;25.73;15.93;;;11.80;99.90;;;;;;5084170;28;20461;-71
2022/11/09 05:10:26;;;;;;;22.00;16.03;;;11.80;99.90;;;;;;5090128;28;21057;-72
2022/11/09 05:12:58;;;;;;;22.20;14.97;;;11.70;99.90;;;;;;5093332;28;20471;-72
2022/11/09 05:15:25;;;;;;;20.70;15.03;;;11.70;99.90;;;;;;5094484;28;20447;-72
2022/11/09 05:17:52;;;;;;;22.33;16.17;;;11.60;99.90;;;;;;5094157;28;20453;-72
2022/11/09 05:20:19;;;;;;;24.00;15.00;;;11.70;99.90;;;;;;5094624;28;20455;-72
2022/11/09 05:25:30;;;;;;;11.20;9.73;;;11.60;99.90;;;;;;5094569;28;20813;-72
2022/11/09 05:27:58;;;;;;;14.53;10.00;;;11.70;99.90;;;;;;5094355;28;20443;-72
2022/11/09 05:30:25;;;;;;;8.80;6.87;;;11.70;99.90;;;;;;5093329;28;21324;-72
2022/11/09 05:32:51;;;;;;;7.50;6.30;;;11.70;99.90;;;;;;5094125;28;20521;-72
2022/11/09 05:35:18;;;;;;;9.20;6.77;;;11.80;99.90;;;;;;5094645;28;20447;-72
2022/11/09 05:37:47;;;;;;;8.13;6.13;;;11.90;99.90;;;;;;5093703;28;20451;-72
2022/11/09 05:40:15;;;;;;;8.73;6.17;;;11.90;99.90;;;;;;5094103;28;20484;-72
2022/11/09 05:42:42;;;;;;;6.13;5.37;;;11.90;99.90;;;;;;5093456;28;20473;-72
2022/11/09 05:45:13;;;;;;;9.63;5.83;;;12.00;99.90;;;;;;5093945;28;20962;-72
2022/11/09 05:47:40;;;;;;;6.83;6.13;;;12.00;99.90;;;;;;5093953;28;20620;-72
2022/11/09 05:50:10;;;;;;;6.77;6.17;;;12.00;99.90;;;;;;5094028;28;20454;-72
2022/11/09 05:52:36;;;;;;;6.87;6.23;;;12.10;99.90;;;;;;5093532;28;20489;-72
2022/11/09 05:55:04;;;;;;;7.20;6.43;;;12.10;99.90;;;;;;5094075;28;20452;-72
2022/11/09 05:57:30;;;;;;;12.40;7.07;;;12.10;99.90;;;;;;5093929;28;20448;-72
2022/11/09 05:59:57;;;;;;;12.93;7.93;;;12.10;99.90;;;;;;5093778;28;20447;-72
2022/11/09 06:02:25;;;;;;;10.73;7.97;;;12.10;99.90;;;;;;5092876;28;20471;-72
2022/11/09 06:04:52;;;;;;;8.83;8.03;;;12.10;99.90;;;;;;5093872;28;20446;-72
2022/11/09 06:07:18;;;;;;;8.27;7.30;;;12.10;99.90;;;;;;5093801;28;20454;-72
2022/11/09 06:09:45;;;;;;;10.97;9.40;;;12.10;99.90;;;;;;5093491;28;20512;-71
2022/11/09 06:12:12;;;;;;;11.87;9.07;;;12.10;99.90;;;;;;5093015;28;20513;-72
2022/11/09 06:14:38;;;;;;;13.40;9.73;;;12.10;99.90;;;;;;5092334;28;20627;-72
2022/11/09 06:17:05;;;;;;;11.60;9.10;;;12.10;99.90;;;;;;5092962;28;20445;-72
2022/11/09 06:19:33;;;;;;;13.83;8.90;;;12.20;99.90;;;;;;5092135;28;20455;-71
2022/11/09 06:22:00;;;;;;;16.10;9.43;;;12.20;99.90;;;;;;5092824;28;20476;-72
2022/11/09 06:24:26;;;;;;;10.67;9.43;;;12.20;99.90;;;;;;5092343;28;20507;-72
2022/11/09 06:26:53;;;;;;;10.07;8.97;;;12.20;99.90;;;;;;5093068;28;20451;-71
2022/11/09 06:29:20;;;;;;;10.37;9.20;;;12.20;99.90;;;;;;5092808;28;20482;-72
2022/11/09 06:31:47;;;;;;;10.60;9.40;;;12.20;99.90;;;;;;5091904;28;20483;-71
2022/11/09 06:34:14;;;;;;;10.50;9.40;;;12.20;99.90;;;;;;5092748;28;21011;-72
2022/11/09 06:36:42;;;;;;;12.27;10.20;;;12.20;99.90;;;;;;5093486;28;20447;-71
2022/11/09 06:39:09;;;;;;;11.90;10.00;;;12.20;99.90;;;;;;5092564;28;20447;-72
2022/11/09 06:41:36;;;;;;;10.10;9.10;;;12.20;99.90;;;;;;5091680;28;20444;-72
2022/11/09 06:44:04;;;;;;;14.07;9.73;;;12.20;99.90;;;;;;5092402;28;20481;-72
2022/11/09 06:46:30;;;;;;;12.17;10.80;;;12.20;99.90;;;;;;5092926;28;21031;-71
2022/11/09 06:48:57;;;;;;;11.77;10.53;;;12.20;99.90;;;;;;5091799;28;20790;-72
2022/11/09 06:51:24;;;;;;;15.37;11.87;;;12.10;99.90;;;;;;5092157;28;20485;-71
2022/11/09 06:53:52;;;;;;;16.03;11.73;;;12.20;99.90;;;;;;5091590;28;20990;-71
2022/11/09 06:56:19;;;;;;;18.30;10.90;;;12.20;99.90;;;;;;5093097;28;20471;-71
2022/11/09 06:58:46;;;;;;;14.73;11.07;;;12.20;99.90;;;;;;5093601;28;20424;-72
2022/11/09 07:01:16;;;;;;;14.87;11.80;;;12.20;99.90;;;;;;5093294;28;20502;-70
2022/11/09 07:03:43;;;;;;;10.73;9.70;;;12.20;99.90;;;;;;5093345;28;20910;-71
2022/11/09 07:06:11;;;;;;;10.80;9.23;;;12.20;99.90;;;;;;5093176;28;20470;-71
2022/11/09 07:08:38;;;;;;;12.27;9.70;;;12.10;99.90;;;;;;5093141;28;20951;-71
2022/11/09 07:11:08;;;;;;;9.67;8.67;;;12.20;99.90;;;;;;5093005;28;20481;-71
2022/11/09 07:13:35;;;;;;;12.10;10.20;;;12.20;99.90;;;;;;5093391;28;20477;-70
2022/11/09 07:16:02;;;;;;;10.40;8.07;;;12.20;99.90;;;;;;5093281;28;20451;-71
2022/11/09 07:18:28;;;;;;;10.47;9.37;;;12.10;99.90;;;;;;5093316;28;20579;-71
2022/11/09 07:20:55;;;;;;;11.07;9.03;;;12.20;99.90;;;;;;5092697;28;20447;-70
2022/11/09 07:23:22;;;;;;;14.00;9.37;;;12.20;99.90;;;;;;5092919;28;20468;-70
2022/11/09 07:25:48;;;;;;;14.67;9.03;;;12.20;99.90;;;;;;5092929;28;21002;-70
2022/11/09 07:28:16;;;;;;;9.20;8.20;;;12.20;99.90;;;;;;5093132;28;20460;-71
2022/11/09 07:30:43;;;;;;;12.83;9.53;;;12.20;99.90;;;;;;5092806;28;20549;-71
2022/11/09 07:33:16;;;;;;;10.33;8.63;;;12.20;99.90;;;;;;5092810;28;20509;-71
2022/11/09 07:35:44;;;;;;;9.20;8.30;;;12.20;99.90;;;;;;5091969;28;20461;-70
2022/11/09 07:38:11;;;;;;;9.73;8.73;;;12.20;99.90;;;;;;5093108;28;20573;-70
2022/11/09 07:40:38;;;;;;;9.57;8.57;;;12.20;99.90;;;;;;5092435;28;20443;-70
2022/11/09 07:43:06;;;;;;;13.50;9.80;;;12.20;99.90;;;;;;5092703;28;20457;-70
2022/11/09 07:45:35;;;;;;;9.63;8.00;;;12.30;99.90;;;;;;5092561;28;20450;-70
2022/11/09 07:48:05;;;;;;;9.30;8.13;;;12.30;99.90;;;;;;5092838;28;20497;-70
2022/11/09 07:50:33;;;;;;;12.33;8.60;;;12.30;99.90;;;;;;5092371;28;20439;-70
2022/11/09 07:53:01;;;;;;;14.23;8.93;;;12.30;99.90;;;;;;5092553;28;20480;-70
2022/11/09 07:55:28;;;;;;;10.53;9.23;;;12.30;99.90;;;;;;5092454;28;20895;-70
2022/11/09 07:57:56;;;;;;;12.03;8.70;;;12.30;99.90;;;;;;5092535;28;20458;-70
2022/11/09 08:00:23;;;;;;;11.10;9.00;;;12.30;99.90;;;;;;5091979;28;20481;-70
2022/11/09 08:02:51;;;;;;;11.37;8.87;;;12.30;99.90;;;;;;5092401;28;20465;-70
2022/11/09 08:05:18;;;;;;;12.13;9.03;;;12.30;99.90;;;;;;5092294;28;20450;-70
2022/11/09 08:07:45;;;;;;;11.93;8.60;;;12.30;99.90;;;;;;5092457;28;20447;-70
2022/11/09 08:10:12;;;;;;;10.80;9.20;;;12.40;99.90;;;;;;5092210;28;21031;-70
2022/11/09 08:12:39;;;;;;;11.17;8.53;;;12.40;99.90;;;;;;5091889;28;20485;-70
2022/11/09 08:15:06;;;;;;;12.70;9.47;;;12.40;99.90;;;;;;5091947;28;20451;-70
2022/11/09 08:17:33;;;;;;;13.10;10.13;;;12.40;99.90;;;;;;5092230;28;20455;-70
2022/11/09 08:20:01;;;;;;;13.23;10.60;;;12.40;99.90;;;;;;5092291;28;20811;-70
2022/11/09 08:22:28;;;;;;;14.13;10.40;;;12.40;99.90;;;;;;5091704;28;20463;-70
2022/11/09 08:24:55;;;;;;;14.90;10.03;;;12.40;99.90;;;;;;5091993;28;20879;-70
2022/11/09 08:27:22;;;;;;;12.40;10.47;;;12.50;99.90;;;;;;5091764;28;20833;-70
2022/11/09 08:29:49;;;;;;;13.37;10.27;;;12.50;99.90;;;;;;5091925;28;20538;-71
2022/11/09 08:32:15;;;;;;;12.70;11.03;;;12.50;99.90;;;;;;5091566;28;20487;-70
2022/11/09 08:34:46;;;;;;;13.50;9.60;;;12.50;99.90;;;;;;5092097;28;20450;-70
2022/11/09 08:37:14;;;;;;;13.87;10.67;;;12.50;99.90;;;;;;5091888;28;20447;-70
2022/11/09 08:39:41;;;;;;;13.17;11.17;;;12.50;99.90;;;;;;5091601;28;20454;-70
2022/11/09 08:42:08;;;;;;;13.63;10.60;;;12.50;99.90;;;;;;5091384;28;20488;-70
2022/11/09 08:44:35;;;;;;;17.13;12.00;;;12.50;99.90;;;;;;5091889;28;20451;-70
2022/11/09 08:47:01;;;;;;;16.87;13.17;;;12.50;99.90;;;;;;5091673;28;20460;-70
2022/11/09 08:49:28;;;;;;;15.50;11.73;;;12.50;99.90;;;;;;5091754;28;20443;-71
2022/11/09 08:51:55;;;;;;;15.93;12.00;;;12.60;99.90;;;;;;5090887;28;20486;-70
2022/11/09 08:54:23;;;;;;;15.57;11.90;;;12.70;99.90;;;;;;5091823;28;20458;-70
2022/11/09 08:56:49;;;;;;;14.00;11.93;;;12.70;99.90;;;;;;5091672;28;20445;-71
2022/11/09 08:59:16;;;;;;;13.33;11.57;;;12.80;99.90;;;;;;5091753;28;20451;-70
2022/11/09 09:01:43;;;;;;;14.00;11.53;;;12.70;99.90;;;;;;5091275;28;20450;-68
2022/11/09 09:04:09;;;;;;;15.17;12.30;;;12.70;99.90;;;;;;5091407;28;20467;-68
2022/11/09 09:06:36;;;;;;;14.00;11.70;;;12.70;99.90;;;;;;5091134;28;20450;-68
2022/11/09 09:09:03;;;;;;;15.80;13.07;;;12.70;99.90;;;;;;5091688;28;20500;-68
2022/11/09 09:11:31;;;;;;;20.13;14.77;;;12.70;99.90;;;;;;5091241;28;20443;-70
2022/11/09 09:13:58;;;;;;;19.70;15.07;;;12.80;99.90;;;;;;5091611;28;21151;-71
2022/11/09 09:16:24;;;;;;;12.90;11.20;;;12.90;99.90;;;;;;5091955;28;20807;-70
2022/11/09 09:18:51;;;;;;;19.30;12.53;;;12.90;99.90;;;;;;5091523;28;20451;-71
2022/11/09 09:21:18;;;;;;;17.20;14.73;;;12.80;99.90;;;;;;5091242;28;20520;-70
2022/11/09 09:23:46;;;;;;;19.83;14.60;;;12.90;99.90;;;;;;5091562;28;20464;-70
2022/11/09 09:26:13;;;;;;;15.87;12.20;;;12.90;99.90;;;;;;5091423;28;20443;-70
2022/11/09 09:28:41;;;;;;;15.73;11.10;;;12.90;99.90;;;;;;5091588;28;20443;-70
2022/11/09 09:31:07;;;;;;;13.47;11.87;;;13.10;99.90;;;;;;5091023;28;20440;-70
2022/11/09 09:33:34;;;;;;;18.53;9.73;;;13.20;99.90;;;;;;5090960;28;20520;-70
2022/11/09 09:36:01;;;;;;;9.73;7.90;;;13.50;99.90;;;;;;5091434;28;20516;-70
2022/11/09 09:38:29;;;;;;;7.27;6.67;;;13.70;99.90;;;;;;5091303;28;20935;-70
2022/11/09 09:40:59;;;;;;;9.30;6.37;;;13.90;99.90;;;;;;5090853;28;20449;-70
2022/11/09 09:43:31;;;;;;;6.70;5.97;;;14.10;99.90;;;;;;5091032;28;20978;-70
2022/11/09 09:46:02;;;;;;;5.93;5.10;;;14.20;99.90;;;;;;5091379;28;20443;-70
2022/11/09 09:48:36;;;;;;;6.03;5.27;;;14.10;99.90;;;;;;5091591;28;20451;-70
2022/11/09 09:51:09;;;;;;;9.20;8.30;;;14.30;99.90;;;;;;5091432;28;20478;-70
2022/11/09 09:53:42;;;;;;;12.10;10.60;;;14.20;99.90;;;;;;5091186;28;20536;-70
2022/11/09 09:56:13;;;;;;;13.50;8.70;;;14.20;99.90;;;;;;5090812;28;20462;-70
2022/11/09 09:58:45;;;;;;;12.03;7.33;;;14.00;99.90;;;;;;5094141;28;20811;-70
2022/11/09 10:01:16;;;;;;;6.40;4.93;;;13.90;99.90;;;;;;5094565;28;20526;-70
2022/11/09 10:03:43;;;;;;;6.80;6.20;;;13.90;99.90;;;;;;5094640;28;20998;-70
2022/11/09 10:06:25;;;;;;;6.50;3.80;;;13.90;99.90;;;;;;5094576;28;20439;-71
2022/11/09 10:09:01;;;;;;;3.83;3.53;;;14.00;99.90;;;;;;5094502;28;20954;-70
2022/11/09 10:11:36;;;;;;;3.77;3.47;;;14.30;99.90;;;;;;5094119;28;20927;-71
2022/11/09 10:14:48;;;;;;;3.47;3.17;;;14.60;99.90;;;;;;5094567;28;20455;-71
2022/11/09 10:17:24;;;;;;;2.97;2.77;;;15.00;99.90;;;;;;5031616;28;20978;-70
2022/11/09 10:20:03;;;;;;;3.53;2.97;;;15.00;99.90;;;;;;5031938;28;20937;-71
2022/11/09 10:22:40;;;;;;;5.90;4.20;;;14.80;99.90;;;;;;5067303;28;20982;-70
2022/11/09 10:25:15;;;;;;;9.87;7.07;;;14.70;99.90;;;;;;5094220;28;20458;-71
2022/11/09 10:27:48;;;;;;;6.20;5.60;;;14.50;99.90;;;;;;5094127;28;20968;-71
2022/11/09 10:30:17;;;;;;;7.37;5.20;;;14.30;99.90;;;;;;5094327;28;20446;-70
2022/11/09 10:32:49;;;;;;;4.30;3.17;;;14.20;99.90;;;;;;5093595;28;20996;-70
2022/11/09 10:35:20;;;;;;;3.63;3.10;;;14.10;99.90;;;;;;5094246;28;20422;-70
2022/11/09 10:37:48;;;;;;;3.63;3.00;;;14.10;99.90;;;;;;5093794;28;20448;-70
2022/11/09 10:40:19;;;;;;;3.53;2.57;;;14.20;99.90;;;;;;5094017;28;20790;-70
2022/11/09 10:42:50;;;;;;;4.50;2.70;;;14.20;99.90;;;;;;5093735;28;20463;-71
2022/11/09 10:45:26;;;;;;;2.60;2.40;;;14.20;99.90;;;;;;5093984;28;20842;-70
2022/11/09 10:47:54;;;;;;;3.07;2.60;;;14.20;99.90;;;;;;5093617;28;20942;-71
2022/11/09 10:50:28;;;;;;;3.43;2.80;;;14.20;99.90;;;;;;5093910;28;20481;-70
2022/11/09 10:53:09;;;;;;;4.20;2.53;;;14.30;99.90;;;;;;5093595;28;20491;-70
2022/11/09 10:55:36;;;;;;;11.90;3.07;;;14.50;99.90;;;;;;5093703;28;20491;-70
2022/11/09 10:58:19;;;;;;;4.50;2.40;;;14.60;99.90;;;;;;5093455;28;20454;-70
2022/11/09 11:00:58;;;;;;;2.20;2.00;;;14.80;99.90;;;;;;5093511;28;20451;-70
2022/11/09 11:03:26;;;;;;;2.13;1.90;;;15.10;99.90;;;;;;5093507;28;20459;-70
2022/11/09 11:05:58;;;;;;;1.77;1.67;;;15.20;99.90;;;;;;5093368;28;21004;-71
2022/11/09 11:08:31;;;;;;;4.57;2.00;;;15.10;99.90;;;;;;5092870;28;20539;-71
2022/11/09 11:11:08;;;;;;;2.60;1.97;;;15.10;99.90;;;;;;5093279;28;20436;-70
2022/11/09 11:13:35;;;;;;;2.87;2.30;;;15.00;99.90;;;;;;5093220;28;20513;-70
2022/11/09 11:16:01;;;;;;;4.17;2.00;;;14.90;99.90;;;;;;5093402;28;20444;-70
2022/11/09 11:18:31;;;;;;;3.00;2.23;;;15.00;99.90;;;;;;5093130;28;20818;-71
2022/11/09 11:21:11;;;;;;;3.20;2.30;;;15.10;99.90;;;;;;5093028;28;20443;-70
2022/11/09 11:23:37;;;;;;;6.53;2.33;;;15.20;99.90;;;;;;5093196;28;20471;-70
2022/11/09 11:26:37;;;;;;;3.33;2.17;;;15.30;99.90;;;;;;5093316;28;20450;-70
2022/11/09 11:29:13;;;;;;;3.37;2.00;;;15.40;99.90;;;;;;5092942;28;20447;-70
2022/11/09 11:31:40;;;;;;;2.97;2.00;;;15.30;99.90;;;;;;5092569;28;20500;-71
2022/11/09 11:34:14;;;;;;;4.90;1.90;;;15.50;99.90;;;;;;5092885;28;20486;-71
2022/11/09 11:36:51;;;;;;;7.90;1.90;;;15.50;99.90;;;;;;5093030;28;20458;-71
2022/11/09 11:39:30;;;;;;;4.37;2.07;;;15.70;99.90;;;;;;5092858;28;20542;-70
2022/11/09 11:42:28;;;;;;;3.20;2.30;;;15.80;99.90;;;;;;5092604;28;20492;-71
2022/11/09 11:45:11;;;;;;;2.57;1.80;;;15.70;99.90;;;;;;5092851;28;20425;-70
2022/11/09 11:47:49;;;;;;;3.40;1.70;;;15.80;99.90;;;;;;5092527;28;20500;-70
2022/11/09 11:50:32;;;;;;;3.77;1.93;;;15.80;99.90;;;;;;5092826;28;20428;-70
2022/11/09 11:53:13;;;;;;;2.50;2.30;;;15.70;99.90;;;;;;5092463;28;20493;-71
2022/11/09 11:55:54;;;;;;;2.10;1.90;;;15.70;99.90;;;;;;5092832;28;20455;-71
2022/11/09 11:58:34;;;;;;;3.07;2.43;;;15.80;99.90;;;;;;5092152;28;20447;-71
2022/11/09 12:01:12;;;;;;;2.10;1.90;;;15.80;99.90;;;;;;5092392;28;20454;-70
2022/11/09 12:03:50;;;;;;;5.60;2.10;;;15.90;99.90;;;;;;5092292;28;20441;-71
2022/11/09 12:06:56;;;;;;;4.67;2.33;;;15.90;99.90;;;;;;5092860;28;20471;-71
2022/11/09 12:09:37;;;;;;;2.30;1.97;;;16.00;99.90;;;;;;5092310;28;20450;-70
2022/11/09 12:12:12;;;;;;;2.57;2.13;;;15.90;99.90;;;;;;5091995;28;20459;-71
2022/11/09 12:14:51;;;;;;;2.00;1.80;;;15.90;99.90;;;;;;5092309;28;20530;-71
2022/11/09 12:17:26;;;;;;;2.77;2.10;;;15.70;99.90;;;;;;5092447;28;20443;-70
2022/11/09 12:20:20;;;;;;;2.60;1.80;;;15.50;99.90;;;;;;5091945;28;20443;-70
2022/11/09 12:23:06;;;;;;;3.53;2.57;;;15.40;99.90;;;;;;5091851;28;20470;-71
2022/11/09 12:25:38;;;;;;;3.10;2.57;;;15.30;99.90;;;;;;5092222;28;20462;-71
2022/11/09 12:28:25;;;;;;;4.30;2.07;;;15.30;99.90;;;;;;5091873;28;20444;-71
2022/11/09 12:31:04;;;;;;;2.70;1.93;;;15.20;99.90;;;;;;5091948;28;20447;-71
2022/11/09 12:33:41;;;;;;;3.23;2.00;;;15.20;99.90;;;;;;5091590;28;20851;-70
2022/11/09 12:36:13;;;;;;;6.63;2.20;;;15.20;99.90;;;;;;5091886;28;20459;-70
2022/11/09 12:38:50;;;;;;;4.93;2.10;;;15.10;99.90;;;;;;5091964;28;20919;-70
2022/11/09 12:41:21;;;;;;;2.77;2.10;;;15.10;99.90;;;;;;5091507;28;20451;-70
2022/11/09 12:43:53;;;;;;;4.57;2.27;;;15.20;99.90;;;;;;5091362;28;20475;-70
2022/11/09 12:46:27;;;;;;;5.90;3.20;;;15.30;99.90;;;;;;5092083;28;20418;-71
2022/11/09 12:48:57;;;;;;;5.53;3.27;;;15.20;99.90;;;;;;5091803;28;20477;-70
2022/11/09 12:51:24;;;;;;;4.30;4.00;;;15.30;99.90;;;;;;5091534;28;20450;-70